M I D A S
Marine Information and Data Acquisition System
Tripno 1828 of the Zeeleeuw from 2009-12-17 07:39:48 to 2009-12-17 15:53:17
Back to CruiseResearch ActivitiesStationsMapUnderway DataData graphs

EquipmentUnitsComment
TimeDGPSUTC
LatitudeDGPSDM.mWGS84
LongitudeDGPSDM.mWGS84
HeadingGyrodeg 
SOGDGPSknotsSpeed over ground
COGDGPSdegCourse over ground
DepthEcho soundermeters200 kHz
Missing or incorrect values are displayed as -999
Navigation data collected by the RV Zeeleeuw from 2009-12-17 07:59:56 to 2009-12-17 16:00:49
Time Latitude Longitude Heading SOG COG Depth
2009-12-17 08:01:06 51°13.674 2°55.905 104.3 3 288 -999
2009-12-17 08:02:06 51°13.695 2°55.817 118.1 4.1 298 -999
2009-12-17 08:03:06 51°13.744 2°55.723 135.1 5 317 -999
2009-12-17 08:04:06 51°13.812 2°55.646 156.9 5.1 336 -999
2009-12-17 08:05:06 51°13.891 2°55.632 191.3 4.2 9 -999
2009-12-17 08:06:05 51°13.937 2°55.659 218.6 1.6 25 10.6
2009-12-17 08:07:03 51°13.944 2°55.635 275.4 2.5 291 10.6
2009-12-17 08:08:02 51°14.002 2°55.554 323.2 6.9 324 10.6
2009-12-17 08:09:02 51°14.112 2°55.431 325.2 8.6 326 10.2
2009-12-17 08:10:02 51°14.232 2°55.298 324.5 8.8 323 10.4
2009-12-17 08:11:02 51°14.333 2°55.12 305.9 9.5 305 10.1
2009-12-17 08:12:02 51°14.393 2°54.87 276.1 10.8 273 8.8
2009-12-17 08:13:02 51°14.339 2°54.582 244 11.9 244 8.5
2009-12-17 08:14:02 51°14.255 2°54.293 245.5 12.1 246 8.4
2009-12-17 08:15:02 51°14.168 2°54.003 243.6 12.1 245 8.2
2009-12-17 08:16:02 51°14.08 2°53.711 244.7 12.2 244 8.6
2009-12-17 08:17:02 51°13.993 2°53.416 244.9 12.5 244 8.7
2009-12-17 08:18:02 51°13.908 2°53.117 245.7 12.5 247 9.1
2009-12-17 08:19:02 51°13.82 2°52.816 244.7 12.6 244 9.8
2009-12-17 08:20:02 51°13.732 2°52.515 244.6 12.7 244 9.8
2009-12-17 08:21:02 51°13.644 2°52.214 245.5 12.6 240 10.3
2009-12-17 08:22:02 51°13.545 2°51.921 239.6 12.5 241 10.1
2009-12-17 08:23:02 51°13.44 2°51.633 238.3 12.6 239 10.3
2009-12-17 08:24:02 51°13.335 2°51.351 238.7 12.2 237 10.4
2009-12-17 08:25:02 51°13.233 2°51.069 238.8 12.3 243 10.6
2009-12-17 08:26:02 51°13.132 2°50.787 240.1 12.2 242 10.5
2009-12-17 08:27:02 51°13.03 2°50.504 238.3 12.3 240 10.7
2009-12-17 08:28:02 51°12.929 2°50.222 239 12.2 238 10.8
2009-12-17 08:29:02 51°12.827 2°49.941 239.1 12.3 241 10.9
2009-12-17 08:30:02 51°12.727 2°49.659 239.7 12.3 240 11
2009-12-17 08:31:02 51°12.625 2°49.376 239.3 12.3 240 11.1
2009-12-17 08:32:02 51°12.523 2°49.091 240.2 12.3 238 11.3
2009-12-17 08:33:02 51°12.421 2°48.808 239.8 12.2 241 11.2
2009-12-17 08:34:02 51°12.319 2°48.527 238.9 12.3 238 11.4
2009-12-17 08:35:02 51°12.218 2°48.248 240.2 12.1 239 11.2
2009-12-17 08:36:02 51°12.116 2°47.969 239.2 12.2 240 11.1
2009-12-17 08:37:02 51°12.015 2°47.687 239.6 12.2 241 11.2
2009-12-17 08:38:02 51°11.911 2°47.409 238.4 12.2 238 10.8
2009-12-17 08:39:02 51°11.809 2°47.132 239.6 12.1 240 10.8
2009-12-17 08:40:02 51°11.719 2°46.847 254.9 11.8 257 10.9
2009-12-17 08:41:02 51°11.693 2°46.534 266.8 12 265 11.6
2009-12-17 08:42:02 51°11.678 2°46.213 268.7 12.1 265 12.4
2009-12-17 08:43:02 51°11.669 2°45.893 270.2 12.3 268 12.5
2009-12-17 08:44:02 51°11.661 2°45.569 269.4 12.3 267 12.9
2009-12-17 08:45:02 51°11.655 2°45.245 268.9 12.3 268 12.8
2009-12-17 08:46:02 51°11.644 2°44.925 268.5 12 265 12.7
2009-12-17 08:47:02 51°11.634 2°44.608 268.6 11.9 267 12.5
2009-12-17 08:48:02 51°11.626 2°44.295 270.1 11.8 268 12.7
2009-12-17 08:49:02 51°11.62 2°43.987 269.6 11.3 267 11.6
2009-12-17 08:50:02 51°11.612 2°43.683 267.9 11.4 271 11.4
2009-12-17 08:51:02 51°11.604 2°43.38 268.1 11.4 269 10.8
2009-12-17 08:52:02 51°11.596 2°43.075 269.6 11.6 268 10.5
2009-12-17 08:53:02 51°11.587 2°42.769 268.3 11.4 267 10.2
2009-12-17 08:54:02 51°11.578 2°42.465 269.4 11.5 269 10.3
2009-12-17 08:55:02 51°11.567 2°42.161 267.5 11.5 266 10.6
2009-12-17 08:56:02 51°11.547 2°41.858 265 11.5 263 10.8
2009-12-17 08:57:02 51°11.532 2°41.579 275.8 7.4 274 11.8
2009-12-17 08:58:02 51°11.577 2°41.478 354.1 3.7 344 13.2
2009-12-17 08:59:02 51°11.619 2°41.409 290.8 4.5 274 14.3
2009-12-17 09:00:02 51°11.593 2°41.315 222.7 3.7 223 14.9
2009-12-17 09:01:02 51°11.531 2°41.294 157.6 4.7 171 14
2009-12-17 09:02:02 51°11.438 2°41.32 165.1 5.5 175 12.7
2009-12-17 09:03:02 51°11.357 2°41.31 182.3 4.6 192 12.5
2009-12-17 09:04:02 51°11.288 2°41.263 204.9 4.4 216 12.2
2009-12-17 09:05:02 51°11.235 2°41.185 223.4 4.3 230 12.4
2009-12-17 09:06:02 51°11.185 2°41.106 218.6 4.3 228 12.5
2009-12-17 09:07:02 51°11.136 2°41.031 218.5 3.9 224 12.8
2009-12-17 09:08:02 51°11.091 2°40.958 220.9 3.8 227 12.9
2009-12-17 09:09:02 51°11.048 2°40.889 219 3.7 226 13
2009-12-17 09:10:02 51°11.007 2°40.814 225.1 3.8 230 13.3
2009-12-17 09:11:02 51°10.968 2°40.737 225.3 3.7 231 13.5
2009-12-17 09:12:02 51°10.928 2°40.662 224.4 3.7 231 13.2
2009-12-17 09:13:02 51°10.889 2°40.588 224.4 3.7 231 13.4
2009-12-17 09:14:02 51°10.85 2°40.512 224.5 3.7 230 13.7
2009-12-17 09:15:02 51°10.81 2°40.435 224.4 3.9 233 13.7
2009-12-17 09:16:02 51°10.768 2°40.356 224.8 4 229 13.8
2009-12-17 09:17:02 51°10.728 2°40.269 234.1 4.1 240 13.7
2009-12-17 09:18:02 51°10.693 2°40.176 236.3 4.1 238 14.3
2009-12-17 09:19:02 51°10.659 2°40.083 235.2 4.2 239 14.1
2009-12-17 09:20:02 51°10.622 2°39.993 234.5 4 238 14.4
2009-12-17 09:21:02 51°10.587 2°39.904 235.4 3.9 236 14.9
2009-12-17 09:22:02 51°10.555 2°39.82 237.9 3.7 243 14.2
2009-12-17 09:23:02 51°10.528 2°39.734 244.4 3.6 246 14.9
2009-12-17 09:24:02 51°10.504 2°39.648 245.4 3.4 245 15.1
2009-12-17 09:25:02 51°10.476 2°39.567 236.1 3.6 237 15.3
2009-12-17 09:26:02 51°10.444 2°39.486 233.5 3.6 239 14.9
2009-12-17 09:27:02 51°10.411 2°39.408 229.8 3.6 230 15.4
2009-12-17 09:28:02 51°10.376 2°39.333 227.3 3.7 233 15.3
2009-12-17 09:29:02 51°10.34 2°39.257 228 3.6 232 16
2009-12-17 09:30:02 51°10.304 2°39.181 229.5 3.6 234 15.8
2009-12-17 09:31:02 51°10.267 2°39.106 228.3 3.5 233 15.8
2009-12-17 09:32:02 51°10.231 2°39.031 229.2 3.6 230 15.8
2009-12-17 09:33:02 51°10.194 2°38.957 230 3.5 234 15.8
2009-12-17 09:34:02 51°10.158 2°38.883 228.8 3.5 228 15.8
2009-12-17 09:35:02 51°10.12 2°38.81 225.7 3.6 229 15.9
2009-12-17 09:36:02 51°10.081 2°38.738 223.6 3.6 230 15.6
2009-12-17 09:37:02 51°10.042 2°38.668 224 3.6 231 15.6
2009-12-17 09:38:02 51°10.003 2°38.598 223.6 3.5 226 15.7
2009-12-17 09:39:02 51°9.964 2°38.529 222.4 3.4 229 15.4
2009-12-17 09:40:02 51°9.925 2°38.461 223.3 3.5 229 15.3
2009-12-17 09:41:02 51°9.89 2°38.385 235.4 3.6 237 15.7
2009-12-17 09:42:02 51°9.862 2°38.302 246.6 3.5 247 15.3
2009-12-17 09:43:02 51°9.845 2°38.214 261.8 3.4 260 15.4
2009-12-17 09:44:02 51°9.844 2°38.131 284.2 2.9 278 15.7
2009-12-17 09:45:02 51°9.856 2°38.057 295.9 2.8 288 15.8
2009-12-17 09:46:02 51°9.878 2°37.99 317.2 2.9 307 16.7
2009-12-17 09:47:02 51°9.926 2°37.919 330.9 3.9 324 16.7
2009-12-17 09:48:02 51°9.959 2°37.879 334.5 2.2 320 17.8
2009-12-17 09:49:02 51°9.976 2°37.848 326.3 1.4 310 17.9
2009-12-17 09:50:02 51°9.986 2°37.822 315.3 0.9 291 17.3
2009-12-17 09:51:02 51°9.99 2°37.8 301.4 0.8 265 17.6
2009-12-17 09:52:02 51°9.99 2°37.783 285.3 0.6 260 17.8
2009-12-17 09:53:02 51°9.985 2°37.774 271.5 0.6 221 17.9
2009-12-17 09:54:02 51°9.981 2°37.769 257.2 0.3 203 17.8
2009-12-17 09:55:02 51°9.979 2°37.767 250.5 0.1 201 17.2
2009-12-17 09:56:02 51°9.978 2°37.766 248.1 0.3 163 17.6
2009-12-17 09:57:02 51°9.977 2°37.765 250.5 0.2 169 17.8
2009-12-17 09:58:02 51°9.977 2°37.763 257 0.2 343 17.7
2009-12-17 09:59:02 51°9.975 2°37.764 265.2 0.2 165 18.3
2009-12-17 10:00:02 51°9.972 2°37.765 269 0.2 147 17.7
2009-12-17 10:01:02 51°9.969 2°37.768 267.5 0.2 93 17.6
2009-12-17 10:02:03 51°9.967 2°37.772 272.3 0.2 116 18
2009-12-17 10:03:03 51°9.966 2°37.778 275.4 0.3 119 17.9
2009-12-17 10:04:03 51°9.964 2°37.784 272.3 0.4 133 18
2009-12-17 10:05:02 51°9.962 2°37.791 271.3 0.3 104 17.9
2009-12-17 10:06:03 51°9.96 2°37.8 269.4 0.2 118 17.9
2009-12-17 10:07:02 51°9.959 2°37.808 269 0.3 94 17.9
2009-12-17 10:08:02 51°9.958 2°37.817 267.9 0.3 100 17.8
2009-12-17 10:09:03 51°9.958 2°37.827 267.1 0.5 102 17.8
2009-12-17 10:10:03 51°9.957 2°37.838 260.5 0.6 75 18.5
2009-12-17 10:11:03 51°9.955 2°37.851 253.7 0.5 88 18.5
2009-12-17 10:12:02 51°9.953 2°37.862 249.4 0.5 115 18.5
2009-12-17 10:13:03 51°9.951 2°37.872 242.9 0.3 128 18.3
2009-12-17 10:14:02 51°9.95 2°37.879 244.9 0.3 114 18.3
2009-12-17 10:15:03 51°9.948 2°37.886 248 0.3 110 18
2009-12-17 10:16:02 51°9.946 2°37.894 248.9 0.4 118 18.4
2009-12-17 10:17:03 51°9.944 2°37.903 244.7 0.3 98 17.9
2009-12-17 10:18:03 51°9.941 2°37.895 259.7 1.3 258 18
2009-12-17 10:19:02 51°9.962 2°37.847 330.7 3.1 336 18.5
2009-12-17 10:20:03 51°10.018 2°37.884 42.5 4.7 44 18.3
2009-12-17 10:21:02 51°10.083 2°38.055 64.5 9.8 68 18
2009-12-17 10:22:03 51°10.119 2°38.338 85 11.1 87 17.8
2009-12-17 10:23:02 51°10.146 2°38.625 78.5 11.1 77 17.3
2009-12-17 10:24:02 51°10.196 2°38.914 74.2 11.2 72 16.1
2009-12-17 10:25:02 51°10.25 2°39.202 74.1 11.3 73 16.5
2009-12-17 10:26:02 51°10.307 2°39.491 72.6 11.6 73 16.1
2009-12-17 10:27:02 51°10.364 2°39.78 72.7 11.5 74 15.4
2009-12-17 10:28:02 51°10.419 2°40.072 72.5 11.5 73 15.4
2009-12-17 10:29:02 51°10.477 2°40.363 72.6 11.4 70 15.1
2009-12-17 10:30:02 51°10.534 2°40.653 72.2 11.5 72 14.2
2009-12-17 10:31:02 51°10.59 2°40.944 71.1 11.6 73 14.3
2009-12-17 10:32:01 51°10.648 2°41.232 73 11.5 73 14.1
2009-12-17 10:33:02 51°10.71 2°41.529 70.1 11.7 65 14
2009-12-17 10:34:02 51°10.774 2°41.82 69.9 11.6 72 14.4
2009-12-17 10:35:02 51°10.844 2°42.107 68.3 11.7 66 14
2009-12-17 10:36:02 51°10.907 2°42.396 72 11.6 71 14.3
2009-12-17 10:37:02 51°10.967 2°42.688 71.6 11.5 72 14.4
2009-12-17 10:38:02 51°11.024 2°42.981 73.3 11.6 72 14.2
2009-12-17 10:39:02 51°11.075 2°43.277 76.2 11.7 76 14.5
2009-12-17 10:40:02 51°11.116 2°43.578 77.8 11.6 80 14.1
2009-12-17 10:41:02 51°11.155 2°43.881 79.2 11.5 76 13.9
2009-12-17 10:42:02 51°11.19 2°44.185 78.5 11.8 78 14.3
2009-12-17 10:43:02 51°11.231 2°44.49 79.5 11.7 76 13.9
2009-12-17 10:44:02 51°11.274 2°44.794 78 11.8 80 13.8
2009-12-17 10:45:02 51°11.317 2°45.1 79.6 11.8 78 13.9
2009-12-17 10:46:02 51°11.405 2°45.375 57.7 11.8 57 14.7
2009-12-17 10:47:02 51°11.506 2°45.645 61.2 11.8 61 14.2
2009-12-17 10:48:02 51°11.598 2°45.924 62.4 11.9 64 14.4
2009-12-17 10:49:02 51°11.687 2°46.208 64.9 11.9 65 14.7
2009-12-17 10:50:02 51°11.777 2°46.491 64 11.8 65 14.3
2009-12-17 10:51:02 51°11.862 2°46.776 65.1 12 66 14.7
2009-12-17 10:52:02 51°11.951 2°47.06 63.7 12 63 14.6
2009-12-17 10:53:02 51°12.04 2°47.341 61.9 11.8 61 14.9
2009-12-17 10:54:02 51°12.129 2°47.622 62.6 12.1 64 14.9
2009-12-17 10:55:02 51°12.218 2°47.906 64.5 12.2 62 14.6
2009-12-17 10:56:02 51°12.308 2°48.192 64.7 12.1 66 14.7
2009-12-17 10:57:02 51°12.397 2°48.479 64.6 12.1 62 14.6
2009-12-17 10:58:02 51°12.485 2°48.767 65.9 12.2 67 14.6
2009-12-17 10:59:02 51°12.576 2°49.053 64 12.1 60 14.2
2009-12-17 11:00:02 51°12.667 2°49.339 64 12 64 14.6
2009-12-17 11:01:02 51°12.759 2°49.623 63.6 12.2 66 14.6
2009-12-17 11:02:02 51°12.85 2°49.909 64.8 12.1 67 14.3
2009-12-17 11:03:02 51°12.942 2°50.197 61.8 12.3 64 14.6
2009-12-17 11:04:02 51°13.042 2°50.477 60.5 12.2 62 13.4
2009-12-17 11:05:02 51°13.148 2°50.75 59 12.2 57 13.6
2009-12-17 11:06:02 51°13.253 2°51.022 59.6 12.1 58 13.2
2009-12-17 11:07:02 51°13.36 2°51.294 58.2 12.1 57 13.4
2009-12-17 11:08:02 51°13.466 2°51.571 59.1 12.3 61 13.6
2009-12-17 11:09:02 51°13.575 2°51.845 58.7 12.2 57 13
2009-12-17 11:10:02 51°13.684 2°52.121 59.6 12.4 60 13.7
2009-12-17 11:11:02 51°13.791 2°52.396 59.6 12.2 58 13
2009-12-17 11:12:02 51°13.899 2°52.672 58.5 12.2 58 13.3
2009-12-17 11:13:02 51°14.006 2°52.95 60.1 12.3 58 13.5
2009-12-17 11:14:02 51°14.119 2°53.223 55.4 12.4 52 12.5
2009-12-17 11:15:02 51°14.24 2°53.488 54.2 12.5 55 13.1
2009-12-17 11:16:02 51°14.363 2°53.755 53.8 12.4 52 12.3
2009-12-17 11:17:02 51°14.498 2°54.004 40.6 12.4 42 12.2
2009-12-17 11:18:02 51°14.671 2°54.18 28 12.2 31 12.9
2009-12-17 11:19:02 51°14.849 2°54.342 26.1 12.2 32 12.5
2009-12-17 11:20:02 51°15.028 2°54.506 28.2 12.6 30 12.6
2009-12-17 11:21:02 51°15.206 2°54.677 28.9 12.3 30 11.3
2009-12-17 11:22:02 51°15.381 2°54.85 27.5 12.2 32 12.1
2009-12-17 11:23:02 51°15.531 2°55.065 51.5 12.4 53 12
2009-12-17 11:24:02 51°15.634 2°55.355 65.4 12.6 66 11.8
2009-12-17 11:25:02 51°15.717 2°55.662 68.2 12.7 65 11.7
2009-12-17 11:26:02 51°15.809 2°55.965 61.1 12.8 61 10.9
2009-12-17 11:27:02 51°15.919 2°56.256 57.4 12.9 57 11.8
2009-12-17 11:28:02 51°16.034 2°56.542 56.9 12.9 57 11.4
2009-12-17 11:29:02 51°16.148 2°56.829 59.6 12.8 57 11.7
2009-12-17 11:30:02 51°16.261 2°57.122 58.2 13.1 54 11.7
2009-12-17 11:31:02 51°16.375 2°57.414 56.7 13 58 11.8
2009-12-17 11:32:02 51°16.494 2°57.701 56 12.9 56 11.9
2009-12-17 11:33:02 51°16.615 2°57.988 56.9 13.3 56 12
2009-12-17 11:34:02 51°16.737 2°58.277 56.6 13.1 57 11.9
2009-12-17 11:35:02 51°16.853 2°58.575 58.4 13.3 57 11.8
2009-12-17 11:36:02 51°16.97 2°58.872 57.2 13.1 56 11.8
2009-12-17 11:37:02 51°17.091 2°59.167 57.4 13.2 56 12.2
2009-12-17 11:38:02 51°17.211 2°59.462 57.4 13.3 53 12.4
2009-12-17 11:39:02 51°17.332 2°59.757 58.2 13.4 58 12.2
2009-12-17 11:40:02 51°17.45 3°0.057 59.3 13.1 58 12
2009-12-17 11:41:02 51°17.573 3°0.353 55.3 13.3 56 12.2
2009-12-17 11:42:02 51°17.694 3°0.65 56.8 13.2 57 12.1
2009-12-17 11:43:02 51°17.811 3°0.949 58.1 13.3 61 12.5
2009-12-17 11:44:02 51°17.936 3°1.242 54.9 13.5 54 11.8
2009-12-17 11:45:02 51°18.065 3°1.533 54.1 13.2 53 11.9
2009-12-17 11:46:02 51°18.193 3°1.826 54.8 13.5 54 11.6
2009-12-17 11:47:02 51°18.322 3°2.12 55.6 13.6 58 11.1
2009-12-17 11:48:02 51°18.449 3°2.416 55.7 13.5 57 11.4
2009-12-17 11:49:02 51°18.578 3°2.71 54.5 13.5 55 11.7
2009-12-17 11:50:02 51°18.706 3°3.006 54.4 13.6 56 11.3
2009-12-17 11:51:02 51°18.834 3°3.301 55.4 13.5 56 11
2009-12-17 11:52:02 51°18.96 3°3.6 55.7 13.7 59 11.5
2009-12-17 11:53:02 51°19.087 3°3.898 55.7 13.5 56 11.1
2009-12-17 11:54:02 51°19.223 3°4.182 46.4 13.4 50 10.7
2009-12-17 11:55:02 51°19.387 3°4.399 25.4 12.7 29 10.8
2009-12-17 11:56:02 51°19.585 3°4.52 10 12.6 17 11.6
2009-12-17 11:57:02 51°19.783 3°4.623 9.8 12.4 18 11.2
2009-12-17 11:58:02 51°19.984 3°4.734 11.3 12.8 19 10.8
2009-12-17 11:59:02 51°20.185 3°4.848 12.5 12.8 20 10.2
2009-12-17 12:00:02 51°20.382 3°4.963 13 12.6 22 10
2009-12-17 12:01:02 51°20.575 3°5.08 12.5 12.5 22 11.5
2009-12-17 12:02:02 51°20.744 3°5.152 349.9 7.2 2 11.3
2009-12-17 12:03:02 51°20.795 3°5.127 272.7 1.7 316 11.1
2009-12-17 12:04:02 51°20.803 3°5.087 263.3 2.1 278 12
2009-12-17 12:05:02 51°20.814 3°4.998 272.3 4.2 290 10.8
2009-12-17 12:06:02 51°20.853 3°4.923 298.2 3.4 329 11.7
2009-12-17 12:07:02 51°20.91 3°4.888 312.1 3.8 343 11.7
2009-12-17 12:08:02 51°20.976 3°4.888 339.3 4.4 11 12.4
2009-12-17 12:09:02 51°21.047 3°4.946 13.3 4.9 38 12.5
2009-12-17 12:10:02 51°21.105 3°5.04 32.2 4.8 51 13
2009-12-17 12:11:02 51°21.158 3°5.141 30.1 4.9 49 12.3
2009-12-17 12:12:02 51°21.209 3°5.239 34.7 4.9 55 13.1
2009-12-17 12:13:02 51°21.246 3°5.358 72.5 5 72 13
2009-12-17 12:14:02 51°21.259 3°5.488 102.1 4.9 89 13.3
2009-12-17 12:15:02 51°21.258 3°5.616 121.3 4.8 93 12.6
2009-12-17 12:16:02 51°21.245 3°5.731 140.9 4.1 106 12.6
2009-12-17 12:17:02 51°21.222 3°5.83 149.1 3.9 113 12.5
2009-12-17 12:18:02 51°21.196 3°5.925 150 3.9 112 12.8
2009-12-17 12:19:02 51°21.171 3°6.024 146 4.1 112 12.5
2009-12-17 12:20:02 51°21.148 3°6.126 142.9 4.1 110 12.1
2009-12-17 12:21:02 51°21.126 3°6.23 139.7 4.1 109 12.5
2009-12-17 12:22:02 51°21.106 3°6.336 137.1 4.2 105 11.7
2009-12-17 12:23:02 51°21.089 3°6.443 134.1 4 109 12.4
2009-12-17 12:24:02 51°21.074 3°6.552 130.5 4.3 100 11.6
2009-12-17 12:25:02 51°21.067 3°6.669 117.1 4.6 92 11.7
2009-12-17 12:26:02 51°21.07 3°6.793 106.4 4.6 89 11.7
2009-12-17 12:27:02 51°21.077 3°6.916 97.3 4.5 87 12.1
2009-12-17 12:28:02 51°21.095 3°7.038 81.8 4.7 72 11.5
2009-12-17 12:29:02 51°21.125 3°7.157 65.4 5 67 11.9
2009-12-17 12:30:02 51°21.163 3°7.271 63.1 4.9 60 11.9
2009-12-17 12:31:02 51°21.201 3°7.386 62.5 4.9 67 12.1
2009-12-17 12:32:02 51°21.24 3°7.501 60 5 60 11.9
2009-12-17 12:33:02 51°21.284 3°7.613 53.4 5 56 12.3
2009-12-17 12:34:02 51°21.33 3°7.719 46.4 4.8 52 13
2009-12-17 12:35:02 51°21.381 3°7.818 41 4.7 47 12.3
2009-12-17 12:36:02 51°21.43 3°7.906 33.9 4.3 45 12.5
2009-12-17 12:37:02 51°21.478 3°7.992 40.3 4.3 52 13.3
2009-12-17 12:38:02 51°21.52 3°8.086 52.3 4.3 57 12.8
2009-12-17 12:39:02 51°21.559 3°8.185 59.5 4.3 62 13.4
2009-12-17 12:40:02 51°21.596 3°8.286 60.1 4.4 63 13.5
2009-12-17 12:41:02 51°21.63 3°8.391 67.8 4.5 65 13.7
2009-12-17 12:42:02 51°21.659 3°8.498 76.1 4.4 65 12.9
2009-12-17 12:43:02 51°21.682 3°8.607 82.7 4.2 71 13.9
2009-12-17 12:44:02 51°21.701 3°8.715 92.3 4.1 76 14.1
2009-12-17 12:45:02 51°21.714 3°8.824 101 4.1 80 14
2009-12-17 12:46:02 51°21.728 3°8.931 96.6 4 82 14.5
2009-12-17 12:47:02 51°21.743 3°9.039 101.8 4.2 78 14.4
2009-12-17 12:48:02 51°21.75 3°9.155 113.5 5.2 96 14.6
2009-12-17 12:49:02 51°21.736 3°9.25 155.4 2.7 98 14.7
2009-12-17 12:50:02 51°21.735 3°9.313 152.5 2.6 84 14.3
2009-12-17 12:51:02 51°21.742 3°9.374 144.5 2.4 74 15
2009-12-17 12:52:02 51°21.755 3°9.435 133.6 2.5 73 14.9
2009-12-17 12:53:02 51°21.772 3°9.52 82 4.1 60 15.2
2009-12-17 12:54:02 51°21.825 3°9.609 10.8 4.5 30 16
2009-12-17 12:55:02 51°21.882 3°9.622 296.8 2.4 340 15.8
2009-12-17 12:56:02 51°21.886 3°9.578 232.6 3.8 233 15.3
2009-12-17 12:57:02 51°21.834 3°9.42 245.1 8.5 252 14.7
2009-12-17 12:58:02 51°21.794 3°9.186 251.2 9.2 257 14.5
2009-12-17 12:59:02 51°21.738 3°8.97 239.4 8.5 248 14.3
2009-12-17 13:00:02 51°21.657 3°8.781 233.9 8.8 243 14
2009-12-17 13:01:02 51°21.569 3°8.599 231 8.7 236 12.9
2009-12-17 13:02:02 51°21.48 3°8.419 232.8 8.7 232 12.9
2009-12-17 13:03:02 51°21.406 3°8.273 232.9 4 222 12.6
2009-12-17 13:04:02 51°21.379 3°8.24 219.3 0.9 200 12.2
2009-12-17 13:05:02 51°21.369 3°8.251 215.1 0.8 116 12.6
2009-12-17 13:06:02 51°21.371 3°8.269 220.3 0.7 31 12.2
2009-12-17 13:07:02 51°21.379 3°8.29 231.9 1 46 12.1
2009-12-17 13:08:02 51°21.391 3°8.313 242.6 1.3 41 12
2009-12-17 13:09:02 51°21.405 3°8.339 257.7 1.3 52 12
2009-12-17 13:10:02 51°21.423 3°8.369 269.4 1.6 44 12.5
2009-12-17 13:11:02 51°21.442 3°8.401 281.8 1.8 46 12.4
2009-12-17 13:12:02 51°21.462 3°8.438 295.9 2 52 13
2009-12-17 13:13:02 51°21.482 3°8.48 307.6 2.2 58 13.1
2009-12-17 13:14:02 51°21.499 3°8.523 314.7 2 59 12.7
2009-12-17 13:15:02 51°21.518 3°8.566 328.4 2.3 24 13.2
2009-12-17 13:16:02 51°21.584 3°8.614 18.8 6.5 32 13.7
2009-12-17 13:17:02 51°21.719 3°8.738 23.7 11.6 29 13.3
2009-12-17 13:18:02 51°21.894 3°8.897 25.2 12.1 30 15.2
2009-12-17 13:19:02 51°22.071 3°9.063 28.9 12.5 35 15.9
2009-12-17 13:20:02 51°22.244 3°9.252 21.9 12.1 24 15.6
2009-12-17 13:21:02 51°22.412 3°9.242 316.7 9.1 327 16.8
2009-12-17 13:22:02 51°22.549 3°9.094 321.2 10.5 332 16.4
2009-12-17 13:23:02 51°22.723 3°9.024 344.2 11.3 359 15.8
2009-12-17 13:24:02 51°22.91 3°9.095 20 12.3 30 16.6
2009-12-17 13:25:02 51°23.051 3°9.346 54.2 13.1 55 21.8
2009-12-17 13:26:02 51°23.158 3°9.645 59.4 13.1 64 18.2
2009-12-17 13:27:02 51°23.273 3°9.932 51.8 12.7 53 16.6
2009-12-17 13:28:02 51°23.394 3°10.203 49.5 12.5 50 17.2
2009-12-17 13:29:02 51°23.554 3°10.395 20.3 12.1 29 16.7
2009-12-17 13:30:02 51°23.743 3°10.496 10.2 12 17 17.2
2009-12-17 13:31:02 51°23.932 3°10.58 8.7 11.7 16 19.1
2009-12-17 13:32:02 51°24.124 3°10.668 8.6 12 16 21.8
2009-12-17 13:33:02 51°24.313 3°10.77 10 12.2 20 22.2
2009-12-17 13:34:01 51°24.501 3°10.867 6.8 12.1 19 17
2009-12-17 13:35:02 51°24.694 3°10.933 3.7 11.7 11 15.1
2009-12-17 13:36:02 51°24.885 3°10.993 3.9 11.7 11 14
2009-12-17 13:37:02 51°25.073 3°11.066 8.8 11.4 13 13
2009-12-17 13:38:01 51°25.257 3°11.146 10.7 11.6 19 12.4
2009-12-17 13:39:02 51°25.446 3°11.23 11.3 11.7 21 13
2009-12-17 13:40:02 51°25.634 3°11.308 11.7 11.4 13 10.9
2009-12-17 13:41:02 51°25.817 3°11.384 8.9 11.4 15 11
2009-12-17 13:42:01 51°26 3°11.443 4.4 11.2 11 10.5
2009-12-17 13:43:01 51°26.188 3°11.493 4.1 11.4 7 10.9
2009-12-17 13:44:01 51°26.377 3°11.544 8 11.6 15 11.3
2009-12-17 13:45:01 51°26.563 3°11.63 14.8 11.6 19 11.5
2009-12-17 13:46:01 51°26.75 3°11.733 15.3 12.1 19 10.5
2009-12-17 13:47:01 51°26.94 3°11.8 355 11.5 356 12.2
2009-12-17 13:48:01 51°27.094 3°11.693 302.9 9.9 308 11.2
2009-12-17 13:49:01 51°27.153 3°11.453 273.9 10 277 11.9
2009-12-17 13:50:02 51°27.156 3°11.188 258.3 9.9 267 11.6
2009-12-17 13:51:02 51°27.114 3°10.941 244 9.7 243 12.7
2009-12-17 13:52:01 51°27.056 3°10.709 242.5 9.6 250 13
2009-12-17 13:53:01 51°26.993 3°10.475 241.3 9.6 245 12.9
2009-12-17 13:54:01 51°26.928 3°10.241 239.9 9.6 243 13
2009-12-17 13:55:01 51°26.865 3°10.003 243 9.9 250 12.8
2009-12-17 13:56:01 51°26.804 3°9.762 242.4 9.7 246 13.4
2009-12-17 13:57:01 51°26.74 3°9.524 242.3 9.7 245 13.2
2009-12-17 13:58:01 51°26.678 3°9.284 242.5 9.8 251 13
2009-12-17 13:59:01 51°26.614 3°9.047 240.9 9.8 241 13.9
2009-12-17 14:00:01 51°26.549 3°8.811 241.8 9.8 245 13.2
2009-12-17 14:01:02 51°26.485 3°8.576 241.1 9.3 243 13.3
2009-12-17 14:02:02 51°26.421 3°8.346 242.4 9.4 244 12.7
2009-12-17 14:03:01 51°26.36 3°8.121 242.5 9.3 253 12.4
2009-12-17 14:04:01 51°26.296 3°7.892 242.5 9.4 249 12.7
2009-12-17 14:05:01 51°26.233 3°7.667 241.1 9.2 239 12.2
2009-12-17 14:06:01 51°26.171 3°7.442 242.4 9.4 245 11.7
2009-12-17 14:07:02 51°26.112 3°7.207 243 9.5 253 12.4
2009-12-17 14:08:01 51°26.051 3°6.978 240.9 9.6 242 13.6
2009-12-17 14:09:02 51°25.986 3°6.743 242.3 9.5 241 13.8
2009-12-17 14:10:01 51°25.921 3°6.518 240.1 9.6 249 12.1
2009-12-17 14:11:01 51°25.848 3°6.296 238.3 9.5 245 12.2
2009-12-17 14:12:01 51°25.775 3°6.078 238.1 9.2 249 12.8
2009-12-17 14:13:02 51°25.715 3°5.849 247.6 9.4 257 13
2009-12-17 14:14:01 51°25.671 3°5.614 249.3 9.4 256 13.9
2009-12-17 14:15:01 51°25.633 3°5.372 251.7 9.3 258 14
2009-12-17 14:16:01 51°25.594 3°5.129 250.4 9.4 257 13.7
2009-12-17 14:17:01 51°25.552 3°4.891 248.4 9.2 253 14.4
2009-12-17 14:18:01 51°25.512 3°4.651 250.1 9.5 257 13.9
2009-12-17 14:19:02 51°25.47 3°4.408 249 9.4 247 15.1
2009-12-17 14:20:02 51°25.429 3°4.17 248.3 9.4 251 15.4
2009-12-17 14:21:01 51°25.387 3°3.938 251.1 9.2 258 14.9
2009-12-17 14:22:01 51°25.337 3°3.708 237.9 9 249 14.7
2009-12-17 14:23:01 51°25.238 3°3.529 223.6 9.2 228 16.6
2009-12-17 14:24:01 51°25.129 3°3.364 225.4 8.9 223 16.6
2009-12-17 14:25:02 51°25.017 3°3.2 221.9 9.5 214 18.1
2009-12-17 14:26:01 51°24.913 3°3.034 224.1 9 232 17.2
2009-12-17 14:27:01 51°24.803 3°2.867 217.8 9.4 210 20.2
2009-12-17 14:28:01 51°24.67 3°2.746 207.7 9.5 207 21.9
2009-12-17 14:29:01 51°24.514 3°2.703 186.6 9.9 181 23
2009-12-17 14:30:01 51°24.355 3°2.673 194.9 8.9 198 19.2
2009-12-17 14:31:01 51°24.207 3°2.595 204.3 9.4 201 18.3
2009-12-17 14:32:01 51°24.064 3°2.498 208.6 9 209 18.3
2009-12-17 14:33:01 51°23.93 3°2.381 214.7 9.5 213 18.6
2009-12-17 14:34:01 51°23.804 3°2.236 215.5 9.2 223 17.7
2009-12-17 14:35:01 51°23.678 3°2.095 213.8 9.5 212 17.4
2009-12-17 14:36:01 51°23.552 3°1.948 214.2 9.5 213 16.7
2009-12-17 14:37:01 51°23.423 3°1.806 214.8 9.5 208 16.3
2009-12-17 14:38:02 51°23.292 3°1.668 212 9.5 207 16.3
2009-12-17 14:39:01 51°23.165 3°1.537 212 9.6 205 15.7
2009-12-17 14:40:01 51°23.038 3°1.398 217.2 9 223 14.8
2009-12-17 14:41:01 51°22.911 3°1.258 213.5 9.6 209 15.3
2009-12-17 14:42:01 51°22.784 3°1.118 212.3 9.5 207 14.4
2009-12-17 14:43:01 51°22.654 3°0.981 212.9 9.5 207 14.1
2009-12-17 14:44:01 51°22.528 3°0.846 212 9.2 211 14.3
2009-12-17 14:45:01 51°22.403 3°0.703 218.2 8.7 218 13.7
2009-12-17 14:46:01 51°22.273 3°0.574 211.3 9.7 202 14.5
2009-12-17 14:47:01 51°22.146 3°0.434 215.3 8.9 212 13.7
2009-12-17 14:48:01 51°22.024 3°0.289 213.6 9.2 222 13.1
2009-12-17 14:49:01 51°21.896 3°0.15 215.8 9.4 223 13.9
2009-12-17 14:50:01 51°21.768 3°0.004 216.5 9.4 220 14.1
2009-12-17 14:51:02 51°21.637 2°59.859 215 9.5 213 13.7
2009-12-17 14:52:01 51°21.52 2°59.705 224 9.8 221 14.7
2009-12-17 14:53:01 51°21.433 2°59.496 236.1 9.6 242 14.7
2009-12-17 14:54:01 51°21.358 2°59.271 238.7 9.9 236 15.4
2009-12-17 14:55:01 51°21.279 2°59.05 232.5 9.5 244 13.7
2009-12-17 14:56:01 51°21.183 2°58.854 232.1 9 236 14.1
2009-12-17 14:57:01 51°21.083 2°58.661 227.4 9.7 231 14.3
2009-12-17 14:58:01 51°20.983 2°58.464 225.5 9.8 221 15.1
2009-12-17 14:59:01 51°20.884 2°58.265 228.2 9.7 228 14.4
2009-12-17 15:00:02 51°20.785 2°58.059 231.8 9.5 226 14.9
2009-12-17 15:01:01 51°20.691 2°57.858 229 9.6 231 14
2009-12-17 15:02:01 51°20.593 2°57.654 229.4 9.6 231 14.1
2009-12-17 15:03:01 51°20.496 2°57.447 229.5 10 233 15
2009-12-17 15:04:01 51°20.398 2°57.241 229 10 224 15.2
2009-12-17 15:05:01 51°20.301 2°57.036 229 9.8 237 14.2
2009-12-17 15:06:01 51°20.206 2°56.825 230.4 9.7 234 14.3
2009-12-17 15:07:01 51°20.108 2°56.613 229.4 10 235 14.2
2009-12-17 15:08:01 51°20.01 2°56.402 231.2 9.7 234 14.4
2009-12-17 15:09:01 51°19.91 2°56.193 228.9 10 231 14.4
2009-12-17 15:10:01 51°19.813 2°55.982 229.3 9.8 231 14.3
2009-12-17 15:11:01 51°19.713 2°55.78 227 9.8 226 14.7
2009-12-17 15:12:01 51°19.616 2°55.575 231.1 9.4 231 14.5
2009-12-17 15:13:01 51°19.515 2°55.373 226.8 9.7 232 14.4
2009-12-17 15:14:01 51°19.419 2°55.164 227 9.8 230 14.5
2009-12-17 15:15:01 51°19.323 2°54.958 226.2 9.9 235 13.5
2009-12-17 15:16:01 51°19.227 2°54.752 227.9 9.6 233 13.9
2009-12-17 15:17:01 51°19.129 2°54.547 224.6 9.9 229 14.5
2009-12-17 15:18:01 51°19.025 2°54.353 223.6 9.4 224 13.6
2009-12-17 15:19:01 51°18.901 2°54.198 215.2 9.6 214 13.9
2009-12-17 15:20:01 51°18.765 2°54.06 211.5 9.3 211 13.1
2009-12-17 15:21:02 51°18.627 2°53.918 209.8 9.3 203 12.6
2009-12-17 15:22:01 51°18.497 2°53.781 212.3 9.3 208 12.8
2009-12-17 15:23:01 51°18.366 2°53.636 217.6 9.3 217 12.9
2009-12-17 15:24:01 51°18.242 2°53.474 219 9.7 219 12.7
2009-12-17 15:25:01 51°18.116 2°53.314 215.1 9.8 223 12.7
2009-12-17 15:26:01 51°17.989 2°53.159 212.3 9.8 213 12.7
2009-12-17 15:27:01 51°17.861 2°53.005 210.5 9.7 219 12.7
2009-12-17 15:28:01 51°17.734 2°52.851 212.7 9.9 216 11.9
2009-12-17 15:29:01 51°17.613 2°52.687 222.2 8.6 222 12
2009-12-17 15:30:01 51°17.478 2°52.56 202.9 9.5 213 12.7
2009-12-17 15:31:02 51°17.324 2°52.495 188.1 9.9 185 12.2
2009-12-17 15:32:01 51°17.164 2°52.508 169.2 9.5 166 11.7
2009-12-17 15:33:01 51°17.007 2°52.61 158.1 8.7 161 11.3
2009-12-17 15:34:01 51°16.852 2°52.73 156.8 10.8 155 11.9
2009-12-17 15:35:01 51°16.701 2°52.835 158 11 157 13.2
2009-12-17 15:36:01 51°16.542 2°52.928 162.5 11 165 13.9
2009-12-17 15:37:01 51°16.38 2°53.013 161.4 10.9 163 14.3
2009-12-17 15:38:01 51°16.217 2°53.096 161.6 10.4 157 14.1
2009-12-17 15:39:01 51°16.056 2°53.172 164.8 9.5 163 13.2
2009-12-17 15:40:01 51°15.894 2°53.256 165.5 9.5 160 13.1
2009-12-17 15:41:01 51°15.73 2°53.343 165.4 9.8 159 12.6
2009-12-17 15:42:01 51°15.566 2°53.418 164.2 10.4 164 12.7
2009-12-17 15:43:01 51°15.398 2°53.494 162 10.7 166 12.1
2009-12-17 15:44:01 51°15.272 2°53.683 128.7 10.2 128 11.6
2009-12-17 15:45:01 51°15.173 2°53.906 129.3 9.6 133 11
2009-12-17 15:46:01 51°15.079 2°54.093 128.4 7.9 122 10.8
2009-12-17 15:47:01 51°15.003 2°54.279 129.5 9.4 122 10.7
2009-12-17 15:48:01 51°14.899 2°54.484 131.9 11.2 132 11.1
2009-12-17 15:49:01 51°14.772 2°54.689 138.4 10.5 139 11.3
2009-12-17 15:50:01 51°14.622 2°54.852 152.5 11.1 151 11.7
2009-12-17 15:51:02 51°14.459 2°54.98 150.8 10.5 151 11.8
2009-12-17 15:52:02 51°14.326 2°55.166 136.1 10 136 12.2
2009-12-17 15:53:01 51°14.213 2°55.329 143.7 8.2 144 12.2
2009-12-17 15:54:02 51°14.089 2°55.431 153.8 8.4 156 12.1
2009-12-17 15:55:04 51°13.976 2°55.516 153.8 6.1 155 12.6
2009-12-17 15:56:05 51°13.889 2°55.582 152.7 5.5 153 -999
2009-12-17 15:57:06 51°13.807 2°55.653 147.2 5.5 149 -999
2009-12-17 15:58:06 51°13.741 2°55.747 130.2 5 131 -999
2009-12-17 15:59:05 51°13.698 2°55.832 124 3.8 125 -999
2009-12-17 16:00:06 51°13.67 2°55.918 110.7 3.2 111 -999